Time;durP1;ratioP1;P1;durP2;ratioP2;P2;SDS_P1;SDS_P2;PMS_P1;PMS_P2;Temp;Humidity;BMP_temperature;BMP_pressure;BME280_temperature;BME280_humidity;BME280_pressure;Samples;Min_cycle;Max_cycle;Signal;HPM_P1;HPM_P2
2022/10/05 00:00:45;;;;;;;8.77;8.05;;;;;;;9.97;100.00;101589.69;10343092;28;20067;-77
2022/10/05 00:05:46;;;;;;;25.80;24.05;;;;;;;9.96;100.00;101585.25;10359781;28;20556;-77
2022/10/05 00:10:46;;;;;;;12.70;8.15;;;;;;;9.82;100.00;101573.94;10359422;28;20042;-77
2022/10/05 00:15:47;;;;;;;13.60;12.32;;;;;;;9.79;100.00;101577.28;10361448;28;20033;-77
2022/10/05 00:20:48;;;;;;;12.98;12.02;;;;;;;9.76;100.00;101579.69;10358415;28;20046;-78
2022/10/05 00:25:49;;;;;;;10.63;6.93;;;;;;;9.73;100.00;101582.13;10358998;28;20061;-77
2022/10/05 00:30:49;;;;;;;11.75;10.52;;;;;;;9.63;100.00;101588.47;10358917;28;20119;-78
2022/10/05 00:35:50;;;;;;;17.30;12.57;;;;;;;9.66;100.00;101588.66;10359783;28;20518;-78
2022/10/05 00:41:37;;;;;;;13.85;12.73;;;;;;;9.84;100.00;101593.22;10356907;28;20030;-77
2022/10/05 00:46:43;;;;;;;6.20;5.20;;;;;;;9.99;100.00;101574.97;10274874;28;20042;-77
2022/10/05 00:52:19;;;;;;;10.10;5.97;;;;;;;10.17;100.00;101571.69;10360515;28;20050;-77
2022/10/05 00:57:54;;;;;;;8.13;6.20;;;;;;;10.19;100.00;101564.84;10325476;28;20076;-78
2022/10/05 01:03:04;;;;;;;6.78;5.32;;;;;;;10.24;100.00;101558.16;10318031;28;20045;-77
2022/10/05 01:08:23;;;;;;;5.50;5.03;;;;;;;10.26;100.00;101567.91;10357573;28;20506;-77
2022/10/05 01:13:48;;;;;;;134.43;123.90;;;;;;;10.40;100.00;101555.69;10325147;28;20043;-77
2022/10/05 01:18:53;;;;;;;22.50;12.70;;;;;;;10.48;100.00;101553.50;10365229;28;20048;-77
2022/10/05 01:23:56;;;;;;;18.55;12.23;;;;;;;10.70;100.00;101549.53;10349040;28;20050;-77
2022/10/05 01:29:05;;;;;;;18.17;11.30;;;;;;;10.75;100.00;101557.66;10365436;28;20045;-77
2022/10/05 01:34:16;;;;;;;19.55;10.40;;;;;;;10.75;100.00;101548.06;10365882;28;20042;-78
2022/10/05 01:39:28;;;;;;;17.60;11.32;;;;;;;10.92;100.00;101546.44;10363727;28;20030;-78
2022/10/05 01:44:32;;;;;;;14.90;11.63;;;;;;;11.01;100.00;101540.81;10366489;28;20493;-78
2022/10/05 01:49:56;;;;;;;15.93;10.73;;;;;;;11.10;100.00;101535.22;10364288;28;20042;-78
2022/10/05 01:55:27;;;;;;;16.05;9.30;;;;;;;11.15;100.00;101526.78;10366278;28;20473;-77
2022/10/05 02:00:27;;;;;;;14.00;8.30;;;;;;;11.12;100.00;101525.72;10336567;28;20069;-77
2022/10/05 02:05:32;;;;;;;19.10;8.52;;;;;;;11.13;100.00;101517.03;10347764;28;20050;-77
2022/10/05 02:10:41;;;;;;;18.42;9.40;;;;;;;11.11;100.00;101509.06;10347412;28;20073;-77
2022/10/05 02:15:44;;;;;;;18.25;9.65;;;;;;;11.13;100.00;101509.19;10347459;28;20080;-77
2022/10/05 02:20:45;;;;;;;16.48;9.05;;;;;;;11.21;100.00;101504.34;10361411;28;20042;-77
2022/10/05 02:25:46;;;;;;;14.93;9.20;;;;;;;11.15;100.00;101500.56;10362041;28;20054;-77
2022/10/05 02:30:53;;;;;;;15.32;9.10;;;;;;;11.23;100.00;101494.84;10346081;28;20038;-77
2022/10/05 02:35:55;;;;;;;15.45;11.00;;;;;;;11.28;100.00;101490.75;10324157;28;20053;-77
2022/10/05 02:41:24;;;;;;;14.40;9.45;;;;;;;11.28;100.00;101480.28;10345572;28;20374;-77
2022/10/05 02:46:31;;;;;;;14.10;8.55;;;;;;;11.18;100.00;101472.75;10345076;28;20108;-77
2022/10/05 02:51:50;;;;;;;19.40;9.18;;;;;;;11.19;100.00;101470.22;10364091;28;20045;-77
2022/10/05 02:57:17;;;;;;;18.50;9.48;;;;;;;11.15;100.00;101473.50;10345495;28;20046;-77
2022/10/05 03:02:23;;;;;;;16.65;8.98;;;;;;;11.09;100.00;101466.19;10345313;28;20049;-77
2022/10/05 03:07:31;;;;;;;18.48;8.88;;;;;;;11.04;100.00;101467.63;10314137;28;20486;-77
2022/10/05 03:13:10;;;;;;;15.88;9.45;;;;;;;11.04;100.00;101459.78;10362784;28;20064;-76
2022/10/05 03:18:22;;;;;;;14.88;10.13;;;;;;;11.02;100.00;101450.94;10318190;28;20070;-77
2022/10/05 03:23:44;;;;;;;16.33;10.25;;;;;;;10.96;100.00;101451.50;10358418;28;20038;-77
2022/10/05 03:29:14;;;;;;;17.40;9.15;;;;;;;11.12;100.00;101444.50;10343292;28;20061;-77
2022/10/05 03:34:37;;;;;;;13.60;8.43;;;;;;;11.07;100.00;101439.00;10314781;28;20050;-77
2022/10/05 03:39:48;;;;;;;;;;;;;;;11.01;100.00;101433.41;10347001;28;20069;-76
2022/10/05 03:44:52;;;;;;;19.63;10.05;;;;;;;11.01;100.00;101430.81;10357622;28;19968;-77
2022/10/05 03:50:32;;;;;;;16.20;7.68;;;;;;;10.90;100.00;101431.94;10341438;28;20046;-77
2022/10/05 03:56:15;;;;;;;18.13;10.25;;;;;;;10.81;100.00;101427.97;10359842;28;20398;-77
2022/10/05 04:01:18;;;;;;;13.32;8.20;;;;;;;10.86;100.00;101437.00;10351860;28;20041;-77
2022/10/05 04:06:26;;;;;;;18.10;10.93;;;;;;;10.78;100.00;101433.03;10356830;28;20389;-77
2022/10/05 04:11:38;;;;;;;20.77;9.07;;;;;;;10.95;100.00;101430.47;10338638;28;20042;-77
2022/10/05 04:16:43;;;;;;;19.50;10.10;;;;;;;10.95;100.00;101434.00;10357798;28;20041;-77
2022/10/05 04:21:54;;;;;;;17.17;9.73;;;;;;;10.89;100.00;101427.50;10320559;28;20046;-77
2022/10/05 04:26:56;;;;;;;18.10;11.38;;;;;;;10.93;100.00;101433.00;10342474;28;20049;-77
2022/10/05 04:32:28;;;;;;;13.43;8.40;;;;;;;11.03;100.00;101437.03;10355925;28;20049;-77
2022/10/05 04:37:53;;;;;;;17.08;11.25;;;;;;;11.09;100.00;101431.25;10358998;28;20597;-77
2022/10/05 04:43:12;;;;;;;15.45;8.23;;;;;;;11.26;100.00;101433.06;10352677;28;20049;-77
2022/10/05 04:48:31;;;;;;;17.35;9.75;;;;;;;11.37;100.00;101433.63;10363606;28;20038;-78
2022/10/05 04:53:54;;;;;;;13.23;8.65;;;;;;;11.49;100.00;101432.47;10364162;28;20045;-78
2022/10/05 04:59:22;;;;;;;14.15;7.22;;;;;;;11.65;100.00;101431.56;10355714;28;20042;-78
2022/10/05 05:04:41;;;;;;;21.45;8.65;;;;;;;11.74;100.00;101432.94;10367730;28;20421;-78
2022/10/05 05:10:19;;;;;;;11.63;8.50;;;;;;;11.75;100.00;101415.50;10364813;28;20046;-78
2022/10/05 05:15:50;;;;;;;14.45;6.55;;;;;;;11.71;100.00;101421.41;10361242;28;20104;-77
2022/10/05 05:20:53;;;;;;;14.48;8.32;;;;;;;11.76;100.00;101419.91;10357644;28;20409;-78
2022/10/05 05:26:06;;;;;;;0.70;0.70;;;;;;;11.76;100.00;101419.91;10360699;28;20124;-76
2022/10/05 05:31:16;;;;;;;0.00;0.00;;;;;;;11.84;100.00;101422.91;10346836;28;20234;-78
2022/10/05 05:36:43;;;;;;;0.00;0.00;;;;;;;11.89;100.00;101419.72;10363162;28;20045;-76
2022/10/05 05:41:53;;;;;;;0.20;0.20;;;;;;;11.90;100.00;101417.97;10364452;28;20129;-77
2022/10/05 05:47:17;;;;;;;0.22;0.22;;;;;;;11.98;100.00;101418.38;10365613;28;20048;-77
2022/10/05 05:52:39;;;;;;;0.20;0.20;;;;;;;11.97;100.00;101411.34;10358934;28;20475;-77
2022/10/05 05:58:05;;;;;;;0.10;0.10;;;;;;;12.00;100.00;101414.16;10320456;28;20034;-77
2022/10/05 06:03:10;;;;;;;0.20;0.20;;;;;;;12.01;100.00;101408.97;10357575;28;20080;-77
2022/10/05 06:08:29;;;;;;;0.10;0.10;;;;;;;12.07;100.00;101410.09;10348081;28;20042;-76
2022/10/05 06:13:33;;;;;;;0.20;0.20;;;;;;;12.20;100.00;101404.63;10346974;28;20034;-77
2022/10/05 06:18:33;;;;;;;0.10;0.10;;;;;;;12.31;100.00;101402.56;10345151;28;20045;-77
2022/10/05 06:23:57;;;;;;;0.10;0.10;;;;;;;12.44;99.18;101398.78;10345420;28;20060;-78
2022/10/05 06:29:01;;;;;;;0.00;0.00;;;;;;;12.47;99.68;101404.19;10362295;28;20128;-77
2022/10/05 06:34:18;;;;;;;5.68;3.78;;;;;;;12.56;99.53;101394.13;10360851;28;20038;-77
2022/10/05 06:39:31;;;;;;;9.20;5.22;;;;;;;12.63;98.97;101401.47;10360483;28;20447;-76
2022/10/05 06:44:48;;;;;;;9.10;5.13;;;;;;;12.63;99.08;101395.34;10361430;28;20096;-76
2022/10/05 06:49:52;;;;;;;7.28;3.80;;;;;;;12.66;98.19;101400.75;10321088;28;20045;-76
2022/10/05 06:55:03;;;;;;;8.77;5.25;;;;;;;12.75;97.92;101393.31;10320755;28;20038;-77
2022/10/05 07:00:24;;;;;;;7.28;4.90;;;;;;;12.78;98.02;101396.06;10361387;28;20127;-77
2022/10/05 07:05:50;;;;;;;13.00;11.88;;;;;;;12.96;95.75;101400.38;10357669;28;20041;-76
2022/10/05 07:11:14;;;;;;;7.60;4.82;;;;;;;13.12;95.42;101394.09;10321541;28;20045;-78
2022/10/05 07:16:33;;;;;;;8.35;4.97;;;;;;;13.25;94.72;101384.13;10359571;28;20046;-76
2022/10/05 07:21:56;;;;;;;9.65;4.80;;;;;;;13.36;93.37;101385.50;10353715;28;20046;-76
2022/10/05 07:27:01;;;;;;;7.53;3.25;;;;;;;13.42;93.70;101388.44;10321157;28;20057;-76
2022/10/05 07:32:39;;;;;;;10.32;4.43;;;;;;;13.61;92.94;101387.53;10358923;28;20034;-76
2022/10/05 07:37:56;;;;;;;8.18;4.10;;;;;;;13.83;91.45;101385.84;10316166;28;20047;-77
2022/10/05 07:43:16;;;;;;;8.85;4.25;;;;;;;13.97;90.38;101399.56;10336483;28;20030;-77
2022/10/05 07:48:21;;;;;;;10.40;5.43;;;;;;;14.05;89.44;101395.53;10359013;28;20088;-77
2022/10/05 07:53:24;;;;;;;5.90;3.60;;;;;;;14.23;88.03;101394.47;10359769;28;20041;-77
2022/10/05 07:58:33;;;;;;;8.82;4.53;;;;;;;14.37;87.41;101397.69;10360135;28;20486;-77
2022/10/05 08:03:52;;;;;;;6.32;4.10;;;;;;;14.46;87.29;101395.44;10343861;28;20373;-78
2022/10/05 08:09:01;;;;;;;4.82;2.13;;;;;;;14.65;85.67;101397.03;10359583;28;20038;-77
2022/10/05 08:14:43;;;;;;;5.75;3.60;;;;;;;14.76;85.49;101404.50;10343139;28;20038;-77
2022/10/05 08:20:19;;;;;;;7.93;3.97;;;;;;;14.72;86.25;101397.31;10339704;28;20042;-77
2022/10/05 08:25:39;;;;;;;6.43;4.10;;;;;;;14.88;84.65;101393.56;10340934;28;20112;-77
2022/10/05 08:30:56;;;;;;;7.28;4.50;;;;;;;15.15;83.25;101392.81;10358931;28;20045;-77
2022/10/05 08:36:04;;;;;;;9.25;3.83;;;;;;;15.32;82.39;101396.06;10332551;28;20045;-77
2022/10/05 08:41:21;;;;;;;6.32;4.13;;;;;;;15.48;82.14;101386.97;10340562;28;20397;-77
2022/10/05 08:46:33;;;;;;;11.45;4.43;;;;;;;15.60;79.85;101382.13;10358289;28;20129;-76
2022/10/05 08:51:52;;;;;;;6.65;3.75;;;;;;;15.78;79.23;101387.13;10358803;28;20038;-77
2022/10/05 08:57:16;;;;;;;8.52;3.50;;;;;;;16.10;77.86;101373.28;10357838;28;20038;-76
2022/10/05 09:02:53;;;;;;;5.05;3.03;;;;;;;16.41;78.57;101367.22;10343337;28;20034;-76
2022/10/05 09:08:19;;;;;;;8.57;3.50;;;;;;;16.47;76.75;101363.00;10354444;28;20498;-77
2022/10/05 09:13:41;;;;;;;4.88;3.13;;;;;;;16.77;74.39;101362.13;10347508;28;20042;-78
2022/10/05 09:19:03;;;;;;;18.85;4.93;;;;;;;16.69;74.58;101356.63;10356443;28;20402;-77
2022/10/05 09:24:13;;;;;;;7.28;3.78;;;;;;;16.68;74.83;101352.19;10359109;28;20041;-77
2022/10/05 09:29:20;;;;;;;8.13;4.78;;;;;;;16.83;76.34;101352.66;10358357;28;20054;-76
2022/10/05 09:34:43;;;;;;;8.00;4.35;;;;;;;16.70;75.73;101361.06;10362289;28;20068;-77
2022/10/05 09:39:59;;;;;;;5.38;3.88;;;;;;;16.80;73.21;101352.56;10366364;28;20050;-78
2022/10/05 09:45:32;;;;;;;8.35;4.88;;;;;;;17.05;74.25;101349.75;10343337;28;20042;-77
2022/10/05 09:50:40;;;;;;;11.98;7.05;;;;;;;17.26;74.04;101346.84;10346801;28;20045;-76
2022/10/05 09:56:00;;;;;;;6.82;4.47;;;;;;;17.25;72.38;101342.41;10364344;28;20049;-76
2022/10/05 10:01:28;;;;;;;7.22;2.80;;;;;;;17.11;73.58;101337.63;10365344;28;20069;-77
2022/10/05 10:06:40;;;;;;;10.38;3.35;;;;;;;17.52;73.60;101342.25;10362654;28;20069;-75
2022/10/05 10:12:01;;;;;;;;;;;;;;;17.58;72.68;101317.72;10363881;28;20061;-76
2022/10/05 10:17:41;;;;;;;9.20;5.43;;;;;;;17.75;70.17;101323.41;10349816;28;19928;-76
2022/10/05 10:22:56;;;;;;;75.70;49.60;;;;;;;18.18;70.18;101313.91;10345486;28;20125;-80
2022/10/05 10:28:05;;;;;;;4.88;2.78;;;;;;;18.39;68.65;101315.25;10360930;28;20046;-79
2022/10/05 10:33:34;;;;;;;7.47;2.08;;;;;;;18.54;69.61;101314.72;10355790;28;20634;-78
2022/10/05 10:38:57;;;;;;;5.07;3.03;;;;;;;18.90;67.01;101304.84;10361324;28;20042;-77
2022/10/05 10:44:16;;;;;;;6.47;2.33;;;;;;;19.30;66.46;101291.50;10359659;28;20114;-78
2022/10/05 10:50:10;;;;;;;7.38;3.30;;;;;;;19.93;62.76;101284.63;10361518;28;20038;-78
2022/10/05 10:55:35;;;;;;;4.93;2.33;;;;;;;20.18;63.33;101287.66;10234940;29;20039;-77
2022/10/05 11:01:02;;;;;;;5.20;2.65;;;;;;;21.56;58.43;101272.44;10342367;28;20038;-77
2022/10/05 11:06:33;;;;;;;15.73;9.95;;;;;;;23.46;53.34;101267.16;10357620;28;20042;-80
2022/10/05 11:11:52;;;;;;;17.77;11.05;;;;;;;25.19;49.04;101256.84;10361259;28;20429;-79
2022/10/05 11:16:58;;;;;;;6.82;3.17;;;;;;;23.66;50.40;101258.25;10360941;28;20121;-78
2022/10/05 11:22:21;;;;;;;4.65;1.98;;;;;;;24.57;47.81;101251.81;10322074;28;20042;-77
2022/10/05 11:27:24;;;;;;;5.45;2.55;;;;;;;23.15;53.67;101245.72;10336692;28;20089;-77
2022/10/05 11:32:31;;;;;;;4.50;1.95;;;;;;;26.09;44.98;101240.00;10363046;28;20042;-80
2022/10/05 11:37:53;;;;;;;4.47;2.35;;;;;;;25.38;46.21;101221.88;10355549;28;20037;-79
2022/10/05 11:43:21;;;;;;;5.72;2.28;;;;;;;22.98;52.22;101226.13;10357466;28;20096;-79
2022/10/05 11:48:33;;;;;;;9.68;1.60;;;;;;;24.95;49.36;101208.81;10361291;28;20046;-79
2022/10/05 11:54:22;;;;;;;1.85;1.33;;;;;;;25.31;47.78;101194.28;10360319;28;20030;-79
2022/10/05 11:59:56;;;;;;;3.47;2.15;;;;;;;25.99;43.96;101182.00;10332329;28;20050;-83
2022/10/05 12:05:10;;;;;;;6.80;1.90;;;;;;;25.63;45.86;101179.72;10283777;28;20041;-79
2022/10/05 12:10:34;;;;;;;4.22;2.45;;;;;;;26.50;43.77;101159.03;10357037;28;20042;-78
2022/10/05 12:15:55;;;;;;;3.47;2.15;;;;;;;26.97;42.99;101154.78;10354498;28;20069;-79
2022/10/05 12:21:21;;;;;;;7.63;2.03;;;;;;;26.83;42.17;101154.09;10352373;28;20045;-77
2022/10/05 12:26:43;;;;;;;4.68;2.58;;;;;;;26.72;42.05;101145.31;10355130;28;20699;-78
2022/10/05 12:31:49;;;;;;;4.22;1.95;;;;;;;26.55;42.46;101140.22;10339280;28;20054;-79
2022/10/05 12:36:54;;;;;;;4.55;2.17;;;;;;;26.71;42.02;101136.38;10357289;28;20030;-79
2022/10/05 12:42:09;;;;;;;1.88;1.52;;;;;;;26.39;44.46;101118.97;10345423;28;20145;-77
2022/10/05 12:47:34;;;;;;;4.18;1.20;;;;;;;27.70;40.50;101118.59;10320075;28;20622;-77
2022/10/05 12:53:13;;;;;;;4.38;1.75;;;;;;;27.72;40.44;101112.28;10318017;28;20487;-81
2022/10/05 12:58:23;;;;;;;4.63;1.50;;;;;;;27.23;40.87;101110.47;10317777;28;20042;-80
2022/10/05 13:03:26;;;;;;;4.10;1.50;;;;;;;26.91;41.25;101105.69;10320059;28;20062;-80
2022/10/05 13:08:35;;;;;;;8.75;2.55;;;;;;;26.98;41.76;101104.66;10306198;28;20041;-80
2022/10/05 13:13:51;;;;;;;2.78;1.65;;;;;;;27.30;41.61;101095.13;10354880;28;20139;-80
2022/10/05 13:19:00;;;;;;;4.03;1.73;;;;;;;28.07;40.54;101091.84;10349217;28;20034;-80
2022/10/05 13:24:05;;;;;;;5.20;1.48;;;;;;;27.76;39.80;101079.91;10367443;28;20074;-81
2022/10/05 13:29:21;;;;;;;4.68;1.88;;;;;;;27.61;40.03;101091.88;10364998;28;20066;-81
2022/10/05 13:34:33;;;;;;;4.47;1.58;;;;;;;27.02;41.46;101084.91;10364849;28;20111;-78
2022/10/05 13:39:45;;;;;;;5.22;1.58;;;;;;;27.20;41.98;101082.78;10362384;28;20065;-80
2022/10/05 13:44:54;;;;;;;2.80;1.48;;;;;;;27.46;41.25;101092.16;10359233;28;20065;-79
2022/10/05 13:50:27;;;;;;;5.45;1.88;;;;;;;26.56;42.52;101101.72;10361110;28;20038;-81
2022/10/05 13:55:59;;;;;;;2.45;1.10;;;;;;;25.97;44.56;101098.03;10354751;28;20066;-79
2022/10/05 14:01:07;;;;;;;14.02;2.65;;;;;;;25.09;46.46;101098.97;10350053;28;20092;-81
2022/10/05 14:06:29;;;;;;;3.47;1.80;;;;;;;25.29;44.78;101107.69;10362360;28;20080;-79
2022/10/05 14:11:32;;;;;;;6.90;2.33;;;;;;;25.67;44.60;101100.16;10362884;28;20108;-80
2022/10/05 14:16:34;;;;;;;4.45;1.40;;;;;;;25.67;42.51;101110.03;10360546;28;20045;-77
2022/10/05 14:22:21;;;;;;;3.90;1.38;;;;;;;22.78;49.00;101114.91;10363514;28;20030;-78
2022/10/05 14:27:26;;;;;;;3.85;1.65;;;;;;;21.05;54.74;101131.81;10309941;28;20504;-78
2022/10/05 14:32:31;;;;;;;3.42;1.70;;;;;;;20.35;58.38;101122.22;10342026;28;20053;-79
2022/10/05 14:37:42;;;;;;;6.53;2.45;;;;;;;20.08;60.39;101129.91;10332527;28;20500;-77
2022/10/05 14:42:43;;;;;;;5.73;1.80;;;;;;;19.94;61.86;101124.41;10321369;28;20050;-76
2022/10/05 14:47:49;;;;;;;5.75;1.90;;;;;;;19.86;63.34;101125.16;10319825;28;20100;-77
2022/10/05 14:53:16;;;;;;;5.93;2.25;;;;;;;21.21;56.52;101137.25;10305092;28;20039;-77
2022/10/05 14:58:36;;;;;;;6.03;2.00;;;;;;;20.36;58.48;101145.28;10319260;28;20387;-75
2022/10/05 15:03:50;;;;;;;7.57;2.00;;;;;;;20.48;60.08;101148.06;10321892;28;20043;-78
2022/10/05 15:09:23;;;;;;;6.25;1.92;;;;;;;22.22;53.79;101154.75;10338320;28;20132;-76
2022/10/05 15:14:30;;;;;;;5.88;1.70;;;;;;;20.86;56.60;101152.06;10362075;28;20129;-76
2022/10/05 15:19:58;;;;;;;6.45;2.05;;;;;;;19.55;61.82;101169.84;10355617;28;20045;-78
2022/10/05 15:25:11;;;;;;;9.05;1.77;;;;;;;19.68;62.59;101177.13;10315710;28;20038;-76
2022/10/05 15:30:12;;;;;;;;;;;;;;;19.39;63.00;101197.88;10321468;28;20034;-76
2022/10/05 15:35:28;;;;;;;13.48;2.70;;;;;;;19.40;61.01;101210.28;10317966;28;19918;-77
2022/10/05 15:40:47;;;;;;;4.90;1.80;;;;;;;18.96;61.68;101217.44;10322197;28;20486;-77
2022/10/05 15:45:52;;;;;;;7.97;2.58;;;;;;;18.83;62.01;101239.31;10319481;28;20046;-76
2022/10/05 15:51:14;;;;;;;6.43;2.92;;;;;;;18.25;63.63;101259.34;10332125;28;20490;-77
2022/10/05 15:56:29;;;;;;;8.10;2.30;;;;;;;17.90;65.27;101267.31;10357414;28;20046;-76
2022/10/05 16:01:32;;;;;;;4.07;1.67;;;;;;;17.36;66.44;101266.88;10358294;28;20115;-78
2022/10/05 16:12:15;;;;;;;5.82;2.70;;;;;;;16.54;66.32;101294.56;10356393;28;20474;-76
2022/10/05 16:17:46;;;;;;;4.72;2.00;;;;;;;16.33;67.44;101288.63;10339705;28;20065;-77
2022/10/05 16:23:10;;;;;;;7.23;3.93;;;;;;;16.38;68.08;101297.56;10354668;28;20529;-76
2022/10/05 16:28:27;;;;;;;50.47;47.75;;;;;;;16.42;67.27;101292.41;10336664;28;20394;-77
2022/10/05 16:33:53;;;;;;;4.80;4.00;;;;;;;16.37;68.03;101311.63;10340544;28;20033;-79
2022/10/05 16:39:11;;;;;;;6.05;2.80;;;;;;;16.37;68.57;101303.72;10355971;28;20044;-77
2022/10/05 16:44:26;;;;;;;5.85;2.58;;;;;;;16.29;68.99;101309.66;10329921;28;20049;-79
2022/10/05 16:49:58;;;;;;;7.57;2.78;;;;;;;16.34;68.98;101314.19;10335970;28;20043;-78
2022/10/05 16:55:05;;;;;;;6.20;2.00;;;;;;;16.29;69.17;101314.03;10341445;28;20042;-78
2022/10/05 17:00:12;;;;;;;5.55;1.90;;;;;;;16.36;69.83;101312.47;10316435;28;20030;-78
2022/10/05 17:05:25;;;;;;;3.60;2.10;;;;;;;16.33;69.46;101318.53;10341258;28;20042;-78
2022/10/05 17:10:36;;;;;;;;;;;;;;;16.23;70.42;101334.94;10338379;28;20045;-78
2022/10/05 17:15:59;;;;;;;6.03;2.50;;;;;;;16.24;70.62;101335.03;10355447;28;19928;-78
2022/10/05 17:21:12;;;;;;;6.65;3.42;;;;;;;16.15;72.20;101332.09;10354677;28;20073;-77
2022/10/05 17:26:22;;;;;;;9.45;2.65;;;;;;;16.08;72.54;101348.56;10352080;28;20092;-76
2022/10/05 17:31:24;;;;;;;7.97;2.17;;;;;;;16.22;72.21;101360.47;10352773;28;20046;-76
2022/10/05 17:36:38;;;;;;;;;;;;;;;16.22;73.56;101362.22;10334291;28;20030;-76
2022/10/05 17:41:42;;;;;;;5.13;1.70;;;;;;;16.22;73.25;101363.13;10352077;28;19918;-77
2022/10/05 17:46:52;;;;;;;3.72;2.42;;;;;;;16.28;72.93;101373.88;10309058;28;20041;-77
2022/10/05 17:57:21;;;;;;;5.70;2.60;;;;;;;16.35;73.51;101395.22;10364692;28;20117;-77
2022/10/05 18:02:22;;;;;;;5.18;2.67;;;;;;;16.33;73.97;101396.91;10363106;28;20034;-77
2022/10/05 18:07:23;;;;;;;3.47;2.60;;;;;;;16.33;73.55;101394.25;10363846;28;20038;-77
2022/10/05 18:12:25;;;;;;;6.45;4.32;;;;;;;16.32;73.75;101389.81;10346330;28;20034;-76
2022/10/05 18:17:44;;;;;;;4.07;2.03;;;;;;;16.39;73.40;101384.78;10323341;28;20053;-76
2022/10/05 18:22:49;;;;;;;5.72;2.40;;;;;;;16.37;73.65;101388.22;10306023;28;20038;-76
2022/10/05 18:28:28;;;;;;;10.82;2.85;;;;;;;16.41;73.90;101396.28;10347964;28;20046;-79
2022/10/05 18:33:53;;;;;;;4.80;2.63;;;;;;;16.44;72.94;101396.38;10212741;28;20495;-77
2022/10/05 18:38:56;;;;;;;7.07;2.25;;;;;;;16.42;73.14;101407.78;10359557;28;20046;-76
2022/10/05 18:44:04;;;;;;;4.07;2.60;;;;;;;16.50;73.22;101408.91;10363921;28;20088;-76
2022/10/05 18:49:36;;;;;;;18.88;5.00;;;;;;;16.58;72.95;101414.44;10360510;28;20478;-75
2022/10/05 18:54:42;;;;;;;7.55;2.58;;;;;;;16.46;74.48;101399.09;10374223;28;20487;-75
2022/10/05 18:59:49;;;;;;;6.93;3.55;;;;;;;16.47;73.99;101399.97;10353139;28;20105;-76
2022/10/05 19:05:17;;;;;;;4.90;2.28;;;;;;;16.67;72.29;101400.63;10326247;28;20458;-77
2022/10/05 19:10:29;;;;;;;7.43;2.97;;;;;;;16.64;73.03;101404.03;10337887;28;20046;-76
2022/10/05 19:15:52;;;;;;;6.80;2.77;;;;;;;16.60;73.57;101407.44;10342183;28;20057;-75
2022/10/05 19:21:11;;;;;;;7.25;2.85;;;;;;;16.53;74.11;101416.03;10353282;28;20096;-76
2022/10/05 19:26:14;;;;;;;7.22;3.05;;;;;;;16.48;74.61;101425.53;10357946;28;20034;-76
2022/10/05 19:31:40;;;;;;;3.17;2.42;;;;;;;16.43;74.43;101413.09;10359591;28;20065;-76
2022/10/05 19:36:50;;;;;;;7.57;2.30;;;;;;;16.50;74.60;101432.69;10359155;28;20120;-77
2022/10/05 19:41:56;;;;;;;7.50;3.63;;;;;;;16.59;74.41;101440.00;10340182;28;20774;-75
2022/10/05 19:47:16;;;;;;;4.60;2.28;;;;;;;16.53;75.78;101434.53;10358227;28;20037;-76
2022/10/05 19:52:21;;;;;;;6.07;3.30;;;;;;;16.39;76.03;101423.53;10358681;28;20108;-75
2022/10/05 19:57:23;;;;;;;8.07;3.13;;;;;;;16.34;76.80;101439.19;10355931;28;20041;-76
2022/10/05 20:02:25;;;;;;;6.20;2.42;;;;;;;16.44;76.99;101457.16;10357218;28;20522;-77
2022/10/05 20:07:26;;;;;;;8.55;3.13;;;;;;;16.53;76.91;101459.22;10356790;28;20444;-76
2022/10/05 20:12:52;;;;;;;8.88;3.72;;;;;;;16.55;77.07;101464.53;10339836;28;20041;-77
2022/10/05 20:23:24;;;;;;;8.68;3.15;;;;;;;16.63;77.18;101483.28;10356950;28;20030;-76
2022/10/05 20:28:28;;;;;;;4.05;2.35;;;;;;;16.67;77.47;101485.19;10355831;28;20048;-76
2022/10/05 20:33:29;;;;;;;11.88;3.00;;;;;;;16.68;77.82;101498.44;10355974;28;20085;-76
2022/10/05 20:38:30;;;;;;;6.78;2.88;;;;;;;16.71;79.22;101516.16;10355998;28;20037;-77
2022/10/05 20:43:30;;;;;;;5.97;2.80;;;;;;;16.57;81.15;101526.25;10358024;28;20049;-76
2022/10/05 20:48:31;;;;;;;5.40;2.70;;;;;;;16.25;84.93;101561.28;10355850;28;20042;-76
2022/10/05 20:53:32;;;;;;;9.38;3.03;;;;;;;15.53;93.35;101613.16;10358909;28;20112;-78
2022/10/05 20:58:32;;;;;;;12.73;3.42;;;;;;;14.82;98.82;101600.66;10356734;28;20446;-79
2022/10/05 21:03:33;;;;;;;6.10;3.25;;;;;;;14.48;100.00;101614.06;10358738;28;20121;-80
2022/10/05 21:08:37;;;;;;;3.45;1.65;;;;;;;14.44;99.02;101620.03;10353993;28;20793;-79
2022/10/05 21:13:41;;;;;;;5.30;1.60;;;;;;;14.36;98.44;101640.78;10356441;28;20044;-79
2022/10/05 21:18:43;;;;;;;3.33;2.03;;;;;;;14.34;95.95;101651.22;10336826;28;20069;-81
2022/10/05 21:23:44;;;;;;;2.65;1.40;;;;;;;14.29;96.15;101652.75;10353382;28;20803;-78
2022/10/05 21:28:45;;;;;;;3.75;1.67;;;;;;;14.23;96.05;101670.91;10360447;28;20038;-78
2022/10/05 21:33:45;;;;;;;5.05;1.55;;;;;;;14.14;96.98;101673.13;10364045;28;20077;-80
2022/10/05 21:38:48;;;;;;;3.65;1.33;;;;;;;14.14;96.19;101675.75;10361120;28;20441;-80
2022/10/05 21:43:49;;;;;;;4.13;2.83;;;;;;;14.20;95.24;101668.13;10332703;28;20485;-80
2022/10/05 21:48:50;;;;;;;4.82;1.58;;;;;;;14.23;94.86;101681.44;10345151;28;20042;-81
2022/10/05 21:53:54;;;;;;;3.30;1.40;;;;;;;14.17;95.25;101696.97;10363175;28;20048;-80
2022/10/05 21:58:55;;;;;;;6.63;1.38;;;;;;;14.15;96.18;101703.88;10362496;28;20061;-81
2022/10/05 22:03:55;;;;;;;6.10;2.42;;;;;;;14.19;95.42;101704.13;10364768;28;20120;-79
2022/10/05 22:08:56;;;;;;;5.40;1.92;;;;;;;14.23;95.52;101727.13;10363885;28;20052;-79
2022/10/05 22:14:01;;;;;;;8.57;1.77;;;;;;;14.26;95.76;101741.25;10362377;28;20049;-80
2022/10/05 22:19:02;;;;;;;3.58;1.60;;;;;;;14.27;96.33;101803.63;10362731;28;20049;-78
2022/10/05 22:24:03;;;;;;;5.93;1.42;;;;;;;13.40;98.31;101815.13;10362383;28;20583;-81
2022/10/05 22:29:04;;;;;;;3.50;1.15;;;;;;;12.36;100.00;101841.13;10357202;28;20129;-83
2022/10/05 22:34:04;;;;;;;2.08;1.00;;;;;;;11.79;100.00;101865.00;10362399;28;20058;-82
2022/10/05 22:39:05;;;;;;;3.50;0.85;;;;;;;11.48;100.00;101868.41;10363984;28;20116;-82
2022/10/05 22:44:06;;;;;;;1.40;0.60;;;;;;;11.29;100.00;101857.75;10364014;28;20037;-81
2022/10/05 22:49:06;;;;;;;5.35;0.93;;;;;;;11.16;100.00;101848.22;10360512;28;20045;-83
2022/10/05 22:54:07;;;;;;;3.95;0.85;;;;;;;11.13;100.00;101844.53;10326660;28;20136;-83
2022/10/05 22:59:07;;;;;;;4.20;1.13;;;;;;;11.24;100.00;101853.03;10343680;28;20057;-83
2022/10/05 23:04:08;;;;;;;3.65;0.85;;;;;;;11.37;100.00;101852.06;10345052;28;20042;-80
2022/10/05 23:09:08;;;;;;;5.72;1.90;;;;;;;11.45;100.00;101861.28;10358469;28;20046;-78
2022/10/05 23:14:09;;;;;;;4.97;0.98;;;;;;;11.55;100.00;101868.91;10362278;28;20069;-81
2022/10/05 23:19:11;;;;;;;2.80;1.10;;;;;;;11.68;100.00;101874.88;10360194;28;20136;-81
2022/10/05 23:24:11;;;;;;;5.15;1.45;;;;;;;11.66;100.00;101886.97;10342616;28;20038;-82
2022/10/05 23:29:12;;;;;;;4.68;1.88;;;;;;;11.57;100.00;101898.72;10362928;28;20120;-80
2022/10/05 23:34:12;;;;;;;6.28;2.20;;;;;;;11.45;100.00;101909.38;10360228;28;20052;-81
2022/10/05 23:39:13;;;;;;;5.63;2.17;;;;;;;11.34;100.00;101917.41;10360892;28;20121;-81
2022/10/05 23:44:13;;;;;;;3.55;2.20;;;;;;;11.24;100.00;101927.31;10359034;28;20034;-82
2022/10/05 23:49:14;;;;;;;6.57;2.97;;;;;;;11.30;100.00;101940.81;10360941;28;20461;-80
2022/10/05 23:54:15;;;;;;;7.55;3.20;;;;;;;11.18;100.00;101946.97;10359930;28;20033;-80
2022/10/05 23:59:15;;;;;;;9.43;2.88;;;;;;;11.17;100.00;101961.81;10356648;28;20038;-81
